createdAt,value
2019-03-30T00:01:41.133Z,99389.67
2019-03-30T00:04:09.916Z,99394.50
2019-03-30T00:06:38.831Z,99389.98
2019-03-30T00:09:09.613Z,99388.06
2019-03-30T00:11:38.824Z,99388.31
2019-03-30T00:14:07.349Z,99390.17
2019-03-30T00:16:36.985Z,99395.52
2019-03-30T00:19:06.108Z,99394.95
2019-03-30T00:21:35.085Z,99398.19
2019-03-30T00:24:03.502Z,99392.84
2019-03-30T00:26:32.672Z,99390.73
2019-03-30T00:29:01.582Z,99385.06
2019-03-30T00:31:31.596Z,99391.18
2019-03-30T00:34:02.205Z,99393.33
2019-03-30T00:36:31.357Z,99389.81
2019-03-30T00:38:59.961Z,99386.89
2019-03-30T00:41:28.420Z,99383.64
2019-03-30T00:43:57.184Z,99379.39
2019-03-30T00:46:26.079Z,99383.66
2019-03-30T00:48:57.381Z,99389.02
2019-03-30T00:51:26.324Z,99382.06
2019-03-30T00:53:55.317Z,99375.91
2019-03-30T00:56:24.917Z,99380.47
2019-03-30T00:58:53.858Z,99376.40
2019-03-30T01:01:22.786Z,99378.55
2019-03-30T01:03:51.478Z,99372.39
2019-03-30T01:06:19.951Z,99375.06
2019-03-30T01:08:49.146Z,99372.95
2019-03-30T01:11:17.995Z,99368.12
2019-03-30T01:13:46.506Z,99374.73
2019-03-30T01:16:15.390Z,99365.64
2019-03-30T01:18:44.554Z,99364.85
2019-03-30T01:21:13.980Z,99374.72
2019-03-30T01:23:43.568Z,99361.92
2019-03-30T01:26:12.316Z,99356.03
2019-03-30T01:28:42.119Z,99362.45
2019-03-30T01:31:10.597Z,99357.38
2019-03-30T01:33:39.068Z,99349.89
2019-03-30T01:36:08.244Z,99350.93
2019-03-30T01:38:37.456Z,99351.23
2019-03-30T01:41:07.230Z,99348.25
2019-03-30T01:43:35.819Z,99343.42
2019-03-30T01:46:04.273Z,99341.31
2019-03-30T01:48:33.066Z,99345.81
2019-03-30T01:51:01.974Z,99345.83
2019-03-30T01:53:31.102Z,99339.09
2019-03-30T01:56:00.946Z,99338.30
2019-03-30T01:58:29.699Z,99342.58
2019-03-30T02:00:58.802Z,99341.45
2019-03-30T02:03:27.651Z,99342.30
2019-03-30T02:05:56.264Z,99342.22
2019-03-30T02:08:24.688Z,99336.63
2019-03-30T02:10:53.586Z,99339.30
2019-03-30T02:13:23.086Z,99338.21
2019-03-30T02:15:52.763Z,99336.86
2019-03-30T02:18:21.478Z,99337.92
2019-03-30T02:20:50.559Z,99332.35
2019-03-30T02:23:19.399Z,99335.01
2019-03-30T02:25:48.172Z,99341.10
2019-03-30T02:28:17.799Z,99333.36
2019-03-30T02:30:46.762Z,99338.43
2019-03-30T02:33:15.411Z,99341.10
2019-03-30T02:35:44.602Z,99336.53
2019-03-30T02:38:13.063Z,99332.52
2019-03-30T02:40:41.640Z,99330.66
2019-03-30T02:43:10.452Z,99327.69
2019-03-30T02:45:39.958Z,99329.60
2019-03-30T02:48:09.888Z,99324.50
2019-03-30T02:50:49.374Z,99326.67
2019-03-30T02:53:08.783Z,99325.81
2019-03-30T02:55:37.764Z,99319.67
2019-03-30T02:58:06.258Z,99324.23
2019-03-30T03:00:35.499Z,99319.14
2019-03-30T03:03:04.928Z,99314.58
2019-03-30T03:05:34.228Z,99317.52
2019-03-30T03:08:03.228Z,99310.54
2019-03-30T03:10:32.397Z,99318.81
2019-03-30T03:13:02.053Z,99313.23
2019-03-30T03:15:30.613Z,99316.41
2019-03-30T03:17:59.536Z,99323.89
2019-03-30T03:20:28.649Z,99320.65
2019-03-30T03:22:57.211Z,99317.73
2019-03-30T03:25:25.993Z,99311.30
2019-03-30T03:27:54.527Z,99310.79
2019-03-30T03:30:23.079Z,99305.70
2019-03-30T03:32:51.650Z,99306.73
2019-03-30T03:35:20.691Z,99303.03
2019-03-30T03:37:49.501Z,99308.62
2019-03-30T03:40:18.403Z,99306.22
2019-03-30T03:42:48.086Z,99301.40
2019-03-30T03:45:16.968Z,99308.07
2019-03-30T03:47:45.496Z,99306.97
2019-03-30T03:50:40.440Z,99306.44
2019-03-30T03:53:10.450Z,99310.44
2019-03-30T03:55:39.944Z,99305.09
2019-03-30T03:58:08.541Z,99300.28
2019-03-30T04:00:37.394Z,99314.19
2019-03-30T04:03:05.828Z,99301.61
2019-03-30T04:05:34.918Z,99300.30
2019-03-30T04:08:03.498Z,99301.40
2019-03-30T04:10:33.833Z,99300.05
2019-03-30T04:13:06.901Z,99298.19
2019-03-30T04:15:35.246Z,99300.86
2019-03-30T04:18:04.219Z,99308.80
2019-03-30T04:20:32.735Z,99304.78
2019-03-30T04:23:01.686Z,99303.47
2019-03-30T04:25:30.587Z,99308.54
2019-03-30T04:27:59.351Z,99306.94
2019-03-30T04:30:28.227Z,99309.60
2019-03-30T04:32:56.846Z,99308.02
2019-03-30T04:35:26.149Z,99303.70
2019-03-30T04:37:54.799Z,99302.36
2019-03-30T04:40:23.531Z,99304.53
2019-03-30T04:42:52.777Z,99289.02
2019-03-30T04:45:21.302Z,99298.13
2019-03-30T04:47:49.765Z,99288.20
2019-03-30T04:50:18.840Z,99288.17
2019-03-30T04:52:47.379Z,99291.11
2019-03-30T04:55:17.119Z,99292.92
2019-03-30T04:57:49.688Z,99289.75
2019-03-30T05:00:17.176Z,99284.45
2019-03-30T05:02:46.039Z,99288.45
2019-03-30T05:05:14.878Z,99295.92
2019-03-30T05:07:44.504Z,99287.10
2019-03-30T05:10:13.006Z,99293.26
2019-03-30T05:12:42.325Z,99298.33
2019-03-30T05:15:10.950Z,99299.09
2019-03-30T05:17:47.617Z,99304.47
2019-03-30T05:20:10.701Z,99307.97
2019-03-30T05:22:39.822Z,99307.20
2019-03-30T05:25:08.339Z,99299.70
2019-03-30T05:27:36.998Z,99299.45
2019-03-30T05:30:06.146Z,99306.37
2019-03-30T05:32:35.314Z,99303.45
2019-03-30T05:35:04.411Z,99310.64
2019-03-30T05:37:33.251Z,99312.04
2019-03-30T05:40:02.382Z,99314.39
2019-03-30T05:42:31.471Z,99314.11
2019-03-30T05:45:00.469Z,99310.38
2019-03-30T05:47:29.467Z,99315.21
2019-03-30T05:49:58.205Z,99316.86
2019-03-30T05:52:27.138Z,99311.72
2019-03-30T05:54:56.484Z,99314.46
2019-03-30T05:57:25.142Z,99317.13
2019-03-30T05:59:55.950Z,99312.33
2019-03-30T06:02:24.421Z,99311.58
2019-03-30T06:04:52.869Z,99308.12
2019-03-30T06:07:21.256Z,99311.37
2019-03-30T06:09:49.781Z,99311.88
2019-03-30T06:12:18.365Z,99310.55
2019-03-30T06:14:47.389Z,99311.40
2019-03-30T06:17:15.918Z,99311.47
2019-03-30T06:19:45.785Z,99304.25
2019-03-30T06:22:14.950Z,99309.89
2019-03-30T06:24:43.547Z,99310.98
2019-03-30T06:27:12.054Z,99308.58
2019-03-30T06:29:41.595Z,99309.50
2019-03-30T06:32:11.036Z,99308.49
2019-03-30T06:34:39.798Z,99305.34
2019-03-30T06:37:09.387Z,99316.59
2019-03-30T06:39:38.752Z,99318.77
2019-03-30T06:42:08.004Z,99314.77
2019-03-30T06:44:37.543Z,99324.42
2019-03-30T06:47:06.191Z,99315.91
2019-03-30T06:49:35.448Z,99323.41
2019-03-30T06:52:04.128Z,99322.36
2019-03-30T06:54:33.296Z,99317.91
2019-03-30T06:57:02.664Z,99319.54
2019-03-30T06:59:31.696Z,99313.73
2019-03-30T07:02:00.544Z,99316.14
2019-03-30T07:04:30.234Z,99321.80
2019-03-30T07:06:58.821Z,99317.03
2019-03-30T07:09:27.318Z,99321.09
2019-03-30T07:11:57.113Z,99320.83
2019-03-30T07:14:25.819Z,99320.05
2019-03-30T07:16:54.673Z,99314.97
2019-03-30T07:19:23.513Z,99315.30
2019-03-30T07:21:52.338Z,99318.50
2019-03-30T07:24:21.879Z,99320.92
2019-03-30T07:26:50.298Z,99316.38
2019-03-30T07:29:19.254Z,99322.29
2019-03-30T07:31:47.910Z,99318.54
2019-03-30T07:34:16.767Z,99320.44
2019-03-30T07:36:45.539Z,99320.17
2019-03-30T07:39:15.085Z,99321.83
2019-03-30T07:41:44.105Z,99318.11
2019-03-30T07:44:12.633Z,99314.91
2019-03-30T07:46:41.300Z,99313.31
2019-03-30T07:49:09.884Z,99311.70
2019-03-30T07:51:38.452Z,99321.91
2019-03-30T07:54:08.430Z,99311.98
2019-03-30T07:56:37.556Z,99314.42
2019-03-30T07:59:07.057Z,99315.50
2019-03-30T08:01:36.078Z,99320.85
2019-03-30T08:04:04.736Z,99320.61
2019-03-30T08:06:34.464Z,99312.56
2019-03-30T08:09:03.927Z,99308.55
2019-03-30T08:11:33.797Z,99316.05
2019-03-30T08:14:02.940Z,99307.48
2019-03-30T08:16:32.690Z,99312.04
2019-03-30T08:19:01.885Z,99314.72
2019-03-30T08:21:31.258Z,99312.88
2019-03-30T08:23:59.991Z,99312.86
2019-03-30T08:26:29.074Z,99311.55
2019-03-30T08:28:58.463Z,99311.52
2019-03-30T08:31:27.979Z,99313.16
2019-03-30T08:33:56.798Z,99302.41
2019-03-30T08:36:25.260Z,99310.45
2019-03-30T08:38:54.159Z,99311.55
2019-03-30T08:41:23.040Z,99310.73
2019-03-30T08:43:51.720Z,99303.20
2019-03-30T08:46:20.839Z,99307.52
2019-03-30T08:48:49.484Z,99302.14
2019-03-30T08:51:20.693Z,99302.13
2019-03-30T08:53:54.908Z,99302.41
2019-03-30T08:56:19.768Z,99305.08
2019-03-30T08:58:49.120Z,99298.89
2019-03-30T09:01:18.808Z,99299.44
2019-03-30T09:03:48.135Z,99301.86
2019-03-30T09:06:17.486Z,99294.33
2019-03-30T09:08:46.161Z,99298.36
2019-03-30T09:11:14.745Z,99297.00
2019-03-30T09:13:44.337Z,99293.25
2019-03-30T09:16:13.551Z,99296.73
2019-03-30T09:18:42.562Z,99298.33
2019-03-30T09:21:11.274Z,99294.56
2019-03-30T09:23:40.512Z,99292.97
2019-03-30T09:26:09.142Z,99292.42
2019-03-30T09:28:39.159Z,99291.88
2019-03-30T09:31:08.048Z,99290.80
2019-03-30T09:33:36.758Z,99286.19
2019-03-30T09:36:06.091Z,99280.30
2019-03-30T09:38:34.964Z,99284.30
2019-03-30T09:41:03.423Z,99278.14
2019-03-30T09:43:32.491Z,99278.95
2019-03-30T09:46:01.004Z,99270.88
2019-03-30T09:48:29.916Z,99268.43
2019-03-30T09:50:59.136Z,99263.05
2019-03-30T09:53:27.944Z,99268.11
2019-03-30T09:55:57.268Z,99264.34
2019-03-30T09:58:27.354Z,99262.45
2019-03-30T10:00:57.225Z,99254.94
2019-03-30T10:03:27.129Z,99252.73
2019-03-30T10:05:55.631Z,99249.50
2019-03-30T10:08:24.591Z,99247.09
2019-03-30T10:10:53.910Z,99245.48
2019-03-30T10:13:22.873Z,99241.97
2019-03-30T10:15:52.393Z,99240.91
2019-03-30T10:18:21.662Z,99234.19
2019-03-30T10:20:50.878Z,99233.64
2019-03-30T10:23:22.034Z,99236.33
2019-03-30T10:25:51.940Z,99221.80
2019-03-30T10:28:22.188Z,99231.45
2019-03-30T10:30:51.278Z,99221.80
2019-03-30T10:33:20.133Z,99221.27
2019-03-30T10:35:49.835Z,99224.52
2019-03-30T10:38:18.787Z,99212.71
2019-03-30T10:40:47.482Z,99208.94
2019-03-30T10:43:16.794Z,99207.84
2019-03-30T10:45:46.127Z,99209.97
2019-03-30T10:48:16.984Z,99211.02
2019-03-30T10:50:46.147Z,99205.14
2019-03-30T10:53:14.851Z,99205.64
2019-03-30T10:55:44.052Z,99197.87
2019-03-30T10:58:13.044Z,99193.28
2019-03-30T11:00:41.853Z,99196.22
2019-03-30T11:03:10.948Z,99187.91
2019-03-30T11:05:39.684Z,99185.75
2019-03-30T11:08:09.550Z,99181.45
2019-03-30T11:10:38.942Z,99184.13
2019-03-30T11:13:07.330Z,99178.76
2019-03-30T11:15:35.683Z,99174.73
2019-03-30T11:18:04.903Z,99179.02
2019-03-30T11:20:34.427Z,99175.27
2019-03-30T11:23:04.950Z,99173.64
2019-03-30T11:25:36.113Z,99166.36
2019-03-30T11:28:04.838Z,99169.58
2019-03-30T11:30:33.925Z,99167.39
2019-03-30T11:33:04.363Z,99161.24
2019-03-30T11:35:33.050Z,99153.47
2019-03-30T11:38:01.545Z,99151.00
2019-03-30T11:40:30.227Z,99143.50
2019-03-30T11:42:59.393Z,99143.75
2019-03-30T11:45:29.117Z,99142.16
2019-03-30T11:47:58.439Z,99131.16
2019-03-30T11:50:28.181Z,99128.98
2019-03-30T11:52:56.937Z,99121.17
2019-03-30T11:55:27.055Z,99125.20
2019-03-30T11:57:55.677Z,99120.89
2019-03-30T12:00:24.559Z,99120.30
2019-03-30T12:02:53.129Z,99114.42
2019-03-30T12:05:21.980Z,99113.89
2019-03-30T12:07:53.124Z,99113.61
2019-03-30T12:10:22.313Z,99105.52
2019-03-30T12:12:51.072Z,99112.80
2019-03-30T12:15:19.693Z,99103.92
2019-03-30T12:17:48.482Z,99098.55
2019-03-30T12:20:17.423Z,99101.55
2019-03-30T12:22:46.378Z,99096.14
2019-03-30T12:25:14.764Z,99093.74
2019-03-30T12:27:44.242Z,99098.05
2019-03-30T12:30:12.935Z,99089.40
2019-03-30T12:32:41.587Z,99089.11
2019-03-30T12:35:10.510Z,99086.39
2019-03-30T12:37:39.646Z,99080.45
2019-03-30T12:40:09.379Z,99075.11
2019-03-30T12:42:41.962Z,99074.80
2019-03-30T12:45:10.901Z,99068.85
2019-03-30T12:47:40.212Z,99064.30
2019-03-30T12:50:09.524Z,99061.40
2019-03-30T12:52:38.826Z,99062.49
2019-03-30T12:55:08.204Z,99053.86
2019-03-30T12:57:37.714Z,99051.17
2019-03-30T13:00:07.147Z,99046.30
2019-03-30T13:02:35.884Z,99043.89
2019-03-30T13:05:07.475Z,99039.86
2019-03-30T13:07:36.461Z,99040.56
2019-03-30T13:10:05.721Z,99041.86
2019-03-30T13:12:34.755Z,99035.95
2019-03-30T13:15:04.011Z,99040.80
2019-03-30T13:17:32.726Z,99034.89
2019-03-30T13:20:01.778Z,99030.56
2019-03-30T13:22:31.263Z,99023.08
2019-03-30T13:24:59.903Z,99024.66
2019-03-30T13:27:28.838Z,99013.67
2019-03-30T13:29:58.159Z,99015.02
2019-03-30T13:32:26.890Z,99010.67
2019-03-30T13:34:57.167Z,99004.80
2019-03-30T13:37:26.115Z,99005.05
2019-03-30T13:39:56.689Z,99009.37
2019-03-30T13:42:25.915Z,98997.50
2019-03-30T13:44:55.175Z,98996.70
2019-03-30T13:47:23.674Z,98993.44
2019-03-30T13:49:53.220Z,98986.22
2019-03-30T13:52:23.079Z,98988.34
2019-03-30T13:54:51.633Z,98984.60
2019-03-30T13:57:21.438Z,98986.66
2019-03-30T13:59:49.864Z,98977.75
2019-03-30T14:02:20.057Z,98975.91
2019-03-30T14:04:48.712Z,98978.08
2019-03-30T14:07:18.379Z,98976.73
2019-03-30T14:09:47.035Z,98970.01
2019-03-30T14:12:16.627Z,98965.98
2019-03-30T14:14:46.267Z,98960.36
2019-03-30T14:17:15.171Z,98962.23
2019-03-30T14:19:44.606Z,98956.86
2019-03-30T14:22:13.867Z,98956.58
2019-03-30T14:24:42.933Z,98955.80
2019-03-30T14:27:11.593Z,98956.58
2019-03-30T14:29:40.567Z,98947.69
2019-03-30T14:32:09.622Z,98947.93
2019-03-30T14:34:38.615Z,98924.69
2019-03-30T14:37:07.828Z,98924.69
2019-03-30T14:39:36.703Z,98935.59
2019-03-30T14:42:06.158Z,98936.94
2019-03-30T14:44:35.051Z,98929.64
2019-03-30T14:47:03.791Z,98930.22
2019-03-30T14:49:33.231Z,98925.70
2019-03-30T14:52:01.911Z,98924.07
2019-03-30T14:54:31.136Z,98921.11
2019-03-30T14:57:00.372Z,98920.04
2019-03-30T14:59:30.236Z,98922.35
2019-03-30T15:01:59.431Z,98911.64
2019-03-30T15:04:28.121Z,98904.92
2019-03-30T15:06:56.933Z,98911.13
2019-03-30T15:09:25.856Z,98903.06
2019-03-30T15:11:55.311Z,98903.63
2019-03-30T15:14:24.411Z,98897.44
2019-03-30T15:16:53.354Z,98891.81
2019-03-30T15:19:22.653Z,98894.75
2019-03-30T15:21:51.652Z,98887.52
2019-03-30T15:24:20.758Z,98885.43
2019-03-30T15:26:59.658Z,98883.33
2019-03-30T15:29:21.010Z,98883.33
2019-03-30T15:31:49.714Z,98877.14
2019-03-30T15:34:18.810Z,98874.16
2019-03-30T15:36:47.783Z,98877.39
2019-03-30T15:39:16.740Z,98875.26
2019-03-30T15:41:45.799Z,98876.04
2019-03-30T15:44:15.211Z,98875.26
2019-03-30T15:46:44.235Z,98869.33
2019-03-30T15:49:12.834Z,98868.81
2019-03-30T15:51:41.700Z,98867.47
2019-03-30T15:54:10.548Z,98872.59
2019-03-30T15:56:39.815Z,98874.47
2019-03-30T15:59:09.903Z,98863.93
2019-03-30T16:01:38.489Z,98863.10
2019-03-30T16:04:07.307Z,98862.92
2019-03-30T16:06:37.505Z,98864.36
2019-03-30T16:09:07.105Z,98859.39
2019-03-30T16:11:38.400Z,98859.25
2019-03-30T16:14:07.286Z,98856.71
2019-03-30T16:16:37.041Z,98853.73
2019-03-30T16:19:07.514Z,98855.90
2019-03-30T16:21:37.168Z,98857.53
2019-03-30T16:24:05.910Z,98856.23
2019-03-30T16:26:41.947Z,98848.50
2019-03-30T16:29:05.655Z,98852.30
2019-03-30T16:31:35.463Z,98847.26
2019-03-30T16:34:04.218Z,98849.42
2019-03-30T16:36:33.575Z,98841.08
2019-03-30T16:39:04.718Z,98838.97
2019-03-30T16:41:34.622Z,98841.45
2019-03-30T16:44:03.113Z,98836.94
2019-03-30T16:46:32.072Z,98837.80
2019-03-30T16:49:00.740Z,98836.21
2019-03-30T16:51:30.320Z,98835.79
2019-03-30T16:53:59.472Z,98834.41
2019-03-30T16:56:28.683Z,98837.14
2019-03-30T16:58:57.765Z,98818.33
2019-03-30T17:01:26.460Z,98818.33
2019-03-30T17:03:55.630Z,98834.92
2019-03-30T17:06:24.728Z,98836.05
2019-03-30T17:08:53.698Z,98833.67
2019-03-30T17:11:22.825Z,98840.14
2019-03-30T17:13:52.154Z,98836.16
2019-03-30T17:16:21.461Z,98835.39
2019-03-30T17:18:50.428Z,98831.94
2019-03-30T17:21:19.955Z,98840.30
2019-03-30T17:23:49.212Z,98843.84
2019-03-30T17:26:18.822Z,98845.75
2019-03-30T17:28:48.701Z,98839.61
2019-03-30T17:31:18.115Z,98839.08
2019-03-30T17:33:47.545Z,98838.88
2019-03-30T17:36:18.717Z,98836.19
2019-03-30T17:38:50.168Z,98839.97
2019-03-30T17:41:18.964Z,98830.65
2019-03-30T17:43:47.608Z,98832.56
2019-03-30T17:46:17.655Z,98832.84
2019-03-30T17:48:47.117Z,98837.47
2019-03-30T17:51:16.493Z,98836.69
2019-03-30T17:53:45.998Z,98838.59
2019-03-30T17:56:15.333Z,98834.33
2019-03-30T17:58:44.920Z,98836.48
2019-03-30T18:01:15.714Z,98835.98
2019-03-30T18:03:44.514Z,98835.45
2019-03-30T18:06:13.265Z,98839.76
2019-03-30T18:08:42.517Z,98839.79
2019-03-30T18:11:11.610Z,98839.73
2019-03-30T18:13:40.267Z,98841.28
2019-03-30T18:16:09.223Z,98847.77
2019-03-30T18:18:38.747Z,98852.17
2019-03-30T18:21:07.407Z,98852.48
2019-03-30T18:23:36.088Z,98860.58
2019-03-30T18:26:05.285Z,98860.39
2019-03-30T18:28:34.293Z,98855.89
2019-03-30T18:31:02.922Z,98858.06
2019-03-30T18:33:32.077Z,98855.66
2019-03-30T18:36:01.420Z,98863.42
2019-03-30T18:38:30.361Z,98862.39
2019-03-30T18:40:58.877Z,98867.50
2019-03-30T18:43:27.580Z,98868.30
2019-03-30T18:45:56.677Z,98870.48
2019-03-30T18:48:25.546Z,98871.28
2019-03-30T18:50:54.053Z,98868.88
2019-03-30T18:53:22.820Z,98876.42
2019-03-30T18:55:52.431Z,98860.91
2019-03-30T18:58:20.990Z,98878.55
2019-03-30T19:00:49.694Z,98881.51
2019-03-30T19:03:20.220Z,98887.65
2019-03-30T19:05:50.490Z,98890.89
2019-03-30T19:08:19.406Z,98888.20
2019-03-30T19:10:48.283Z,98895.70
2019-03-30T19:13:17.493Z,98891.68
2019-03-30T19:15:46.715Z,98892.78
2019-03-30T19:18:15.672Z,98897.63
2019-03-30T19:20:45.151Z,98896.28
2019-03-30T19:23:14.333Z,98896.03
2019-03-30T19:25:43.280Z,98898.45
2019-03-30T19:28:12.014Z,98893.91
2019-03-30T19:30:42.347Z,98898.17
2019-03-30T19:33:11.256Z,98905.67
2019-03-30T19:35:40.377Z,98902.41
2019-03-30T19:38:11.046Z,98909.42
2019-03-30T19:40:39.984Z,98901.40
2019-03-30T19:43:09.135Z,98907.30
2019-03-30T19:45:37.894Z,98909.19
2019-03-30T19:48:07.437Z,98906.27
2019-03-30T19:50:37.205Z,98910.03
2019-03-30T19:53:07.119Z,98907.09
2019-03-30T19:55:36.697Z,98908.70
2019-03-30T19:58:05.836Z,98904.17
2019-03-30T20:00:38.494Z,98907.61
2019-03-30T20:03:06.198Z,98898.82
2019-03-30T20:05:35.455Z,98903.36
2019-03-30T20:08:12.016Z,98905.77
2019-03-30T20:10:52.164Z,98904.17
2019-03-30T20:13:21.072Z,98910.59
2019-03-30T20:15:50.373Z,98904.98
2019-03-30T20:18:19.556Z,98904.71
2019-03-30T20:20:48.200Z,98908.20
2019-03-30T20:23:17.684Z,98903.93
2019-03-30T20:25:46.552Z,98903.12
2019-03-30T20:28:16.109Z,98907.95
2019-03-30T20:30:44.713Z,98911.41
2019-03-30T20:33:14.055Z,98907.41
2019-03-30T20:35:43.252Z,98907.39
2019-03-30T20:38:11.873Z,98909.52
2019-03-30T20:40:41.382Z,98908.45
2019-03-30T20:43:10.555Z,98909.80
2019-03-30T20:45:39.325Z,98908.45
2019-03-30T20:48:07.802Z,98906.61
2019-03-30T20:50:36.849Z,98902.31
2019-03-30T20:53:05.602Z,98899.91
2019-03-30T20:55:35.530Z,98908.22
2019-03-30T20:58:04.647Z,98902.88
2019-03-30T21:00:33.174Z,98903.38
2019-03-30T21:03:01.947Z,98904.67
2019-03-30T21:05:30.766Z,98903.29
2019-03-30T21:07:59.466Z,98905.44
2019-03-30T21:10:28.135Z,98903.58
2019-03-30T21:12:57.219Z,98902.73
2019-03-30T21:15:25.950Z,98899.25
2019-03-30T21:17:54.419Z,98909.44
2019-03-30T21:20:23.065Z,98903.02
2019-03-30T21:22:51.684Z,98904.33
2019-03-30T21:25:20.314Z,98905.13
2019-03-30T21:27:50.268Z,98903.53
2019-03-30T21:30:19.500Z,98901.66
2019-03-30T21:32:48.819Z,98897.36
2019-03-30T21:35:18.609Z,98902.73
2019-03-30T21:37:47.401Z,98902.48
2019-03-30T21:40:16.263Z,98900.93
2019-03-30T21:42:44.953Z,98907.61
2019-03-30T21:45:13.549Z,98899.88
2019-03-30T21:47:42.374Z,98894.02
2019-03-30T21:50:12.991Z,98898.55
2019-03-30T21:52:42.273Z,98898.28
2019-03-30T21:55:11.258Z,98893.20
2019-03-30T21:57:40.080Z,98894.02
2019-03-30T22:00:10.997Z,98893.20
2019-03-30T22:02:40.357Z,98898.87
2019-03-30T22:05:08.903Z,98893.20
2019-03-30T22:07:37.515Z,98894.85
2019-03-30T22:10:07.773Z,98894.06
2019-03-30T22:12:37.715Z,98894.06
2019-03-30T22:15:06.807Z,98895.91
2019-03-30T22:17:35.432Z,98894.06
2019-03-30T22:20:04.485Z,98889.23
2019-03-30T22:22:33.387Z,98888.42
2019-03-30T22:25:02.427Z,98891.39
2019-03-30T22:27:31.553Z,98884.95
2019-03-30T22:30:01.962Z,98887.92
2019-03-30T22:32:31.491Z,98886.31
2019-03-30T22:35:00.450Z,98879.38
2019-03-30T22:37:29.896Z,98884.20
2019-03-30T22:39:58.801Z,98882.32
2019-03-30T22:42:27.217Z,98875.91
2019-03-30T22:44:56.167Z,98879.93
2019-03-30T22:47:24.929Z,98879.64
2019-03-30T22:49:54.134Z,98880.70
2019-03-30T22:52:22.907Z,98886.06
2019-03-30T22:54:52.310Z,98890.89
2019-03-30T22:57:21.287Z,98886.08
2019-03-30T22:59:49.935Z,98884.48
2019-03-30T23:02:18.383Z,98891.98
2019-03-30T23:04:47.307Z,98887.45
2019-03-30T23:07:15.855Z,98884.49
2019-03-30T23:09:44.424Z,98883.70
2019-03-30T23:12:12.937Z,98889.30
2019-03-30T23:14:41.602Z,98885.00
2019-03-30T23:17:10.411Z,98890.90
2019-03-30T23:19:39.483Z,98888.22
2019-03-30T23:22:08.369Z,98894.11
2019-03-30T23:24:37.482Z,98884.50
2019-03-30T23:27:06.785Z,98888.23
2019-03-30T23:29:35.573Z,98890.39
2019-03-30T23:32:04.196Z,98885.84
2019-03-30T23:34:33.195Z,98885.04
2019-03-30T23:37:02.386Z,98890.39
2019-03-30T23:39:32.029Z,98889.85
2019-03-30T23:42:00.678Z,98892.29
2019-03-30T23:44:30.025Z,98889.07
2019-03-30T23:46:58.818Z,98886.14
2019-03-30T23:49:28.370Z,98886.92
2019-03-30T23:51:57.103Z,98884.81
2019-03-30T23:54:27.435Z,98887.49
2019-03-30T23:56:56.623Z,98888.29
2019-03-30T23:59:25.144Z,98889.64
